createdAt,value
2023-08-12T00:00:41.962Z,5.63
2023-08-12T00:03:09.469Z,5.10
2023-08-12T00:05:37.113Z,5.27
2023-08-12T00:08:04.477Z,5.50
2023-08-12T00:10:31.697Z,5.23
2023-08-12T00:12:58.912Z,5.13
2023-08-12T00:15:26.112Z,5.00
2023-08-12T00:17:54.290Z,5.73
2023-08-12T00:20:21.638Z,5.63
2023-08-12T00:22:48.855Z,5.63
2023-08-12T00:25:16.711Z,5.30
2023-08-12T00:27:43.985Z,5.00
2023-08-12T00:30:11.274Z,5.47
2023-08-12T00:32:38.498Z,4.90
2023-08-12T00:35:06.577Z,5.00
2023-08-12T00:37:33.848Z,4.93
2023-08-12T00:40:01.171Z,5.00
2023-08-12T00:42:28.352Z,4.87
2023-08-12T00:44:55.553Z,4.93
2023-08-12T00:47:23.341Z,4.93
2023-08-12T00:49:51.032Z,4.70
2023-08-12T00:52:19.286Z,4.50
2023-08-12T00:54:46.602Z,4.90
2023-08-12T00:57:14.097Z,4.40
2023-08-12T00:59:41.514Z,4.90
2023-08-12T01:02:08.948Z,4.63
2023-08-12T01:04:36.229Z,4.60
2023-08-12T01:07:04.611Z,4.73
2023-08-12T01:09:32.221Z,4.97
2023-08-12T01:12:04.080Z,4.80
2023-08-12T01:14:34.426Z,5.33
2023-08-12T01:17:06.897Z,5.13
2023-08-12T01:19:37.120Z,5.23
2023-08-12T01:22:05.327Z,5.70
2023-08-12T01:24:39.436Z,5.40
2023-08-12T01:27:07.515Z,5.70
2023-08-12T01:29:38.664Z,5.70
2023-08-12T01:32:10.713Z,5.60
2023-08-12T01:34:56.923Z,5.07
2023-08-12T01:37:29.001Z,5.13
2023-08-12T01:39:56.884Z,5.20
2023-08-12T01:42:25.995Z,5.00
2023-08-12T01:44:53.497Z,4.53
2023-08-12T01:47:20.769Z,5.20
2023-08-12T01:49:47.956Z,4.57
2023-08-12T01:52:15.164Z,4.57
2023-08-12T01:54:42.366Z,4.33
2023-08-12T01:57:10.386Z,4.40
2023-08-12T01:59:38.005Z,4.77
2023-08-12T02:02:05.411Z,4.40
2023-08-12T02:04:34.538Z,4.20
2023-08-12T02:07:01.794Z,4.13
2023-08-12T02:09:28.984Z,4.00
2023-08-12T02:11:56.207Z,4.03
2023-08-12T02:14:23.445Z,4.43
2023-08-12T02:16:50.749Z,4.40
2023-08-12T02:19:17.953Z,4.33
2023-08-12T02:21:45.330Z,4.20
2023-08-12T02:24:12.580Z,4.70
2023-08-12T02:26:40.013Z,4.40
2023-08-12T02:29:07.264Z,4.37
2023-08-12T02:31:34.508Z,4.63
2023-08-12T02:34:01.889Z,4.23
2023-08-12T02:36:29.126Z,4.50
2023-08-12T02:38:56.343Z,4.03
2023-08-12T02:41:23.571Z,4.47
2023-08-12T02:43:50.779Z,4.93
2023-08-12T02:46:19.254Z,4.20
2023-08-12T02:48:48.589Z,4.80
2023-08-12T02:51:15.966Z,5.13
2023-08-12T02:53:43.187Z,4.50
2023-08-12T02:56:10.447Z,4.70
2023-08-12T02:58:38.758Z,4.50
2023-08-12T03:01:05.973Z,4.47
2023-08-12T03:03:33.251Z,4.50
2023-08-12T03:06:00.462Z,4.43
2023-08-12T03:08:27.642Z,4.90
2023-08-12T03:11:03.953Z,4.80
2023-08-12T03:13:31.362Z,4.67
2023-08-12T03:15:58.633Z,4.60
2023-08-12T03:18:25.916Z,4.70
2023-08-12T03:20:53.170Z,4.70
2023-08-12T03:23:20.445Z,4.30
2023-08-12T03:25:50.501Z,4.50
2023-08-12T03:28:18.074Z,4.70
2023-08-12T03:30:52.401Z,4.80
2023-08-12T03:33:19.983Z,4.53
2023-08-12T03:35:48.030Z,4.63
2023-08-12T03:38:15.403Z,4.87
2023-08-12T03:40:43.164Z,4.77
2023-08-12T03:43:10.385Z,4.40
2023-08-12T03:45:55.509Z,4.80
2023-08-12T03:48:22.739Z,4.80
2023-08-12T03:50:50.137Z,4.53
2023-08-12T03:53:18.553Z,4.70
2023-08-12T03:55:45.773Z,4.43
2023-08-12T03:58:12.955Z,5.00
2023-08-12T04:00:46.566Z,4.50
2023-08-12T04:03:14.086Z,4.60
2023-08-12T04:05:49.671Z,4.60
2023-08-12T04:08:16.940Z,4.50
2023-08-12T04:10:46.440Z,4.67
2023-08-12T04:13:13.689Z,4.47
2023-08-12T04:15:41.068Z,4.67
2023-08-12T04:18:08.456Z,4.40
2023-08-12T04:20:35.774Z,4.70
2023-08-12T04:23:02.986Z,4.73
2023-08-12T04:25:30.170Z,4.43
2023-08-12T04:27:57.354Z,4.20
2023-08-12T04:30:24.662Z,4.53
2023-08-12T04:32:51.898Z,4.20
2023-08-12T04:35:19.125Z,4.33
2023-08-12T04:37:46.318Z,4.77
2023-08-12T04:40:13.582Z,4.70
2023-08-12T04:42:40.816Z,4.30
2023-08-12T04:45:08.802Z,4.50
2023-08-12T04:47:36.040Z,4.60
2023-08-12T04:50:03.669Z,4.70
2023-08-12T04:52:30.949Z,4.80
2023-08-12T04:54:58.198Z,4.70
2023-08-12T04:57:25.578Z,4.57
2023-08-12T04:59:52.870Z,4.97
2023-08-12T05:02:21.764Z,4.70
2023-08-12T05:04:50.977Z,4.67
2023-08-12T05:07:18.280Z,4.80
2023-08-12T05:09:45.603Z,5.07
2023-08-12T05:12:13.081Z,5.27
2023-08-12T05:14:41.337Z,4.40
2023-08-12T05:17:08.853Z,5.03
2023-08-12T05:19:36.072Z,4.50
2023-08-12T05:22:03.316Z,5.20
2023-08-12T05:24:30.515Z,4.97
2023-08-12T05:26:57.842Z,4.47
2023-08-12T05:29:25.017Z,4.80
2023-08-12T05:31:52.242Z,4.73
2023-08-12T05:34:19.438Z,5.10
2023-08-12T05:36:46.744Z,5.10
2023-08-12T05:39:14.009Z,5.13
2023-08-12T05:41:41.303Z,4.97
2023-08-12T05:44:08.591Z,5.33
2023-08-12T05:46:35.770Z,5.70
2023-08-12T05:49:02.982Z,5.40
2023-08-12T05:51:30.902Z,5.50
2023-08-12T05:53:58.215Z,5.17
2023-08-12T05:56:25.415Z,5.60
2023-08-12T05:58:52.598Z,5.40
2023-08-12T06:01:21.120Z,5.27
2023-08-12T06:03:48.435Z,6.43
2023-08-12T06:06:15.631Z,6.20
2023-08-12T06:08:42.905Z,5.93
2023-08-12T06:11:10.084Z,7.03
2023-08-12T06:13:37.286Z,5.90
2023-08-12T06:16:05.799Z,5.97
2023-08-12T06:18:33.050Z,6.70
2023-08-12T06:21:00.274Z,6.47
2023-08-12T06:23:27.973Z,6.40
2023-08-12T06:25:55.267Z,6.73
2023-08-12T06:28:22.513Z,6.43
2023-08-12T06:30:49.856Z,7.43
2023-08-12T06:33:17.097Z,7.40
2023-08-12T06:35:44.345Z,6.70
2023-08-12T06:38:11.581Z,7.50
2023-08-12T06:40:40.240Z,7.20
2023-08-12T06:43:08.783Z,7.90
2023-08-12T06:45:36.363Z,7.17
2023-08-12T06:48:03.732Z,7.60
2023-08-12T06:50:31.680Z,8.37
2023-08-12T06:52:58.858Z,7.63
2023-08-12T06:55:26.046Z,8.50
2023-08-12T06:57:53.257Z,8.30
2023-08-12T07:00:20.509Z,8.40
2023-08-12T07:02:47.753Z,9.33
2023-08-12T07:05:15.032Z,9.37
2023-08-12T07:07:42.257Z,9.27
2023-08-12T07:10:09.825Z,9.47
2023-08-12T07:12:37.018Z,8.70
2023-08-12T07:15:04.582Z,9.20
2023-08-12T07:17:31.820Z,10.27
2023-08-12T07:19:59.051Z,9.40
2023-08-12T07:22:26.533Z,9.90
2023-08-12T07:24:53.819Z,9.97
2023-08-12T07:27:21.147Z,9.80
2023-08-12T07:29:48.477Z,10.03
2023-08-12T07:32:15.711Z,9.67
2023-08-12T07:34:42.907Z,9.63
2023-08-12T07:37:10.098Z,9.73
2023-08-12T07:39:37.358Z,10.00
2023-08-12T07:42:04.857Z,10.13
2023-08-12T07:44:32.136Z,9.70
2023-08-12T07:46:59.643Z,9.37
2023-08-12T07:49:26.876Z,10.25
2023-08-12T07:51:54.092Z,9.10
2023-08-12T07:54:21.501Z,8.80
2023-08-12T07:56:48.722Z,9.00
2023-08-12T07:59:17.227Z,9.07
2023-08-12T08:01:44.461Z,8.40
2023-08-12T08:04:11.742Z,8.37
2023-08-12T08:06:39.145Z,8.23
2023-08-12T08:09:06.441Z,7.70
2023-08-12T08:11:35.331Z,7.83
2023-08-12T08:14:02.575Z,7.97
2023-08-12T08:16:29.899Z,7.70
2023-08-12T08:18:58.834Z,7.73
2023-08-12T08:21:26.131Z,7.83
2023-08-12T08:23:53.322Z,8.10
2023-08-12T08:26:20.587Z,8.00
2023-08-12T08:28:47.838Z,7.40
2023-08-12T08:31:15.155Z,8.03
2023-08-12T08:33:45.165Z,8.20
2023-08-12T08:36:12.675Z,7.93
2023-08-12T08:38:39.896Z,7.87
2023-08-12T08:41:08.337Z,7.17
2023-08-12T08:43:37.200Z,7.63
2023-08-12T08:46:04.433Z,7.60
2023-08-12T08:48:31.684Z,8.03
2023-08-12T08:50:59.206Z,7.80
2023-08-12T08:53:26.436Z,7.30
2023-08-12T08:56:01.420Z,7.50
2023-08-12T08:58:29.147Z,7.93
2023-08-12T09:00:56.483Z,8.00
2023-08-12T09:03:23.886Z,8.47
2023-08-12T09:05:52.699Z,8.00
2023-08-12T09:08:20.360Z,7.90
2023-08-12T09:10:48.121Z,7.90
2023-08-12T09:13:16.126Z,7.70
2023-08-12T09:15:43.430Z,6.80
2023-08-12T09:18:11.112Z,7.27
2023-08-12T09:20:38.371Z,7.97
2023-08-12T09:23:05.646Z,7.53
2023-08-12T09:25:33.002Z,7.83
2023-08-12T09:28:00.932Z,9.37
2023-08-12T09:30:32.476Z,8.53
2023-08-12T09:33:01.971Z,8.53
2023-08-12T09:35:36.622Z,7.80
2023-08-12T09:38:07.733Z,6.57
2023-08-12T09:40:35.820Z,7.13
2023-08-12T09:43:03.470Z,6.47
2023-08-12T09:45:32.115Z,6.65
2023-08-12T09:47:59.860Z,6.80
2023-08-12T09:50:27.870Z,6.60
2023-08-12T09:52:56.052Z,5.82
2023-08-12T09:55:24.835Z,6.20
2023-08-12T09:57:55.950Z,6.38
2023-08-12T10:00:24.701Z,6.97
2023-08-12T10:02:52.820Z,7.05
2023-08-12T10:05:29.005Z,8.00
2023-08-12T10:07:56.676Z,6.90
2023-08-12T10:10:23.979Z,6.15
2023-08-12T10:12:52.782Z,6.75
2023-08-12T10:15:20.910Z,6.00
2023-08-12T10:17:48.949Z,5.40
2023-08-12T10:20:21.737Z,5.45
2023-08-12T10:22:49.556Z,5.63
2023-08-12T10:25:17.644Z,5.25
2023-08-12T10:27:45.218Z,5.65
2023-08-12T10:30:14.591Z,5.63
2023-08-12T10:32:41.851Z,5.43
2023-08-12T10:35:09.711Z,5.03
2023-08-12T10:37:37.001Z,5.30
2023-08-12T10:40:08.622Z,4.85
2023-08-12T10:42:46.132Z,5.18
2023-08-12T10:45:14.037Z,5.80
2023-08-12T10:47:47.849Z,5.55
2023-08-12T10:50:19.308Z,5.65
2023-08-12T10:52:46.846Z,5.28
2023-08-12T10:55:22.198Z,4.68
2023-08-12T10:57:50.044Z,4.70
2023-08-12T11:00:36.994Z,4.88
2023-08-12T11:03:07.591Z,4.97
2023-08-12T11:05:38.610Z,4.75
2023-08-12T11:08:07.473Z,4.80
2023-08-12T11:10:36.199Z,4.70
2023-08-12T11:13:04.521Z,4.22
2023-08-12T11:15:38.859Z,4.50
2023-08-12T11:18:06.315Z,4.55
2023-08-12T11:20:34.543Z,4.32
2023-08-12T11:23:02.543Z,3.97
2023-08-12T11:25:30.596Z,3.75
2023-08-12T11:27:58.351Z,3.80
2023-08-12T11:30:26.001Z,3.75
2023-08-12T11:32:54.699Z,4.07
2023-08-12T11:35:22.916Z,3.80
2023-08-12T11:37:51.113Z,3.78
2023-08-12T11:40:18.997Z,3.95
2023-08-12T11:42:47.101Z,4.03
2023-08-12T11:45:15.329Z,4.18
2023-08-12T11:47:42.860Z,4.22
2023-08-12T11:50:11.388Z,4.90
2023-08-12T11:52:39.066Z,4.55
2023-08-12T11:55:09.294Z,4.60
2023-08-12T11:57:36.738Z,4.30
2023-08-12T12:00:09.301Z,4.28
2023-08-12T12:02:53.039Z,4.28
2023-08-12T12:05:29.257Z,3.55
2023-08-12T12:07:56.782Z,3.83
2023-08-12T12:10:33.953Z,3.50
2023-08-12T12:13:03.123Z,3.45
2023-08-12T12:15:30.457Z,3.85
2023-08-12T12:17:57.714Z,3.55
2023-08-12T12:20:25.133Z,3.70
2023-08-12T12:22:52.326Z,3.78
2023-08-12T12:25:22.788Z,3.40
2023-08-12T12:27:50.021Z,3.55
2023-08-12T12:30:17.882Z,3.40
2023-08-12T12:32:46.350Z,3.30
2023-08-12T12:35:13.877Z,3.58
2023-08-12T12:37:41.387Z,3.72
2023-08-12T12:40:09.118Z,3.60
2023-08-12T12:42:36.374Z,4.00
2023-08-12T12:45:03.900Z,3.58
2023-08-12T12:47:31.335Z,3.63
2023-08-12T12:49:58.658Z,3.90
2023-08-12T12:52:25.937Z,3.40
2023-08-12T12:54:53.305Z,4.15
2023-08-12T12:57:20.552Z,3.90
2023-08-12T12:59:47.768Z,3.72
2023-08-12T13:02:15.195Z,3.80
2023-08-12T13:04:43.784Z,3.65
2023-08-12T13:07:11.065Z,3.13
2023-08-12T13:09:39.232Z,3.15
2023-08-12T13:12:06.992Z,2.90
2023-08-12T13:14:34.299Z,2.83
2023-08-12T13:17:01.576Z,2.90
2023-08-12T13:19:28.798Z,3.00
2023-08-12T13:21:56.035Z,2.83
2023-08-12T13:24:23.378Z,3.05
2023-08-12T13:26:50.664Z,3.13
2023-08-12T13:29:17.846Z,2.50
2023-08-12T13:31:45.397Z,2.97
2023-08-12T13:34:12.628Z,2.75
2023-08-12T13:36:40.306Z,2.85
2023-08-12T13:39:07.572Z,2.75
2023-08-12T13:41:35.047Z,2.70
2023-08-12T13:44:04.907Z,2.50
2023-08-12T13:46:32.092Z,2.60
2023-08-12T13:48:59.276Z,2.30
2023-08-12T13:51:26.493Z,2.50
2023-08-12T13:53:53.941Z,2.15
2023-08-12T13:56:23.395Z,2.47
2023-08-12T13:58:50.585Z,2.30
2023-08-12T14:01:17.913Z,2.10
2023-08-12T14:03:45.133Z,1.90
2023-08-12T14:06:12.373Z,2.20
2023-08-12T14:08:39.701Z,2.30
2023-08-12T14:11:06.891Z,2.30
2023-08-12T14:13:34.141Z,2.60
2023-08-12T14:16:01.390Z,3.00
2023-08-12T14:18:28.566Z,3.30
2023-08-12T14:20:55.778Z,3.70
2023-08-12T14:23:24.085Z,3.70
2023-08-12T14:25:51.280Z,3.10
2023-08-12T14:28:18.476Z,2.72
2023-08-12T14:30:45.713Z,3.03
2023-08-12T14:33:13.060Z,3.60
2023-08-12T14:35:40.295Z,3.30
2023-08-12T14:38:07.475Z,3.70
2023-08-12T14:40:35.336Z,3.92
2023-08-12T14:43:02.533Z,3.80
2023-08-12T14:45:30.187Z,3.60
2023-08-12T14:47:57.406Z,3.50
2023-08-12T14:50:24.604Z,3.30
2023-08-12T14:52:51.815Z,3.40
2023-08-12T14:55:19.041Z,3.45
2023-08-12T14:57:46.289Z,3.58
2023-08-12T15:00:13.900Z,3.13
2023-08-12T15:02:41.236Z,3.28
2023-08-12T15:05:08.655Z,3.33
2023-08-12T15:07:35.910Z,3.45
2023-08-12T15:10:03.390Z,3.00
2023-08-12T15:12:30.907Z,3.08
2023-08-12T15:14:58.485Z,3.13
2023-08-12T15:17:25.790Z,3.20
2023-08-12T15:19:53.060Z,3.20
2023-08-12T15:22:20.300Z,3.13
2023-08-12T15:24:47.543Z,3.15
2023-08-12T15:27:15.049Z,3.20
2023-08-12T15:29:42.554Z,3.00
2023-08-12T15:32:09.745Z,3.35
2023-08-12T15:34:37.013Z,3.13
2023-08-12T15:37:05.017Z,2.88
2023-08-12T15:39:32.366Z,3.10
2023-08-12T15:41:59.886Z,3.10
2023-08-12T15:44:27.117Z,3.10
2023-08-12T15:46:54.360Z,3.08
2023-08-12T15:49:21.808Z,2.80
2023-08-12T15:51:49.020Z,2.85
2023-08-12T15:54:16.269Z,3.03
2023-08-12T15:56:43.466Z,2.88
2023-08-12T15:59:10.956Z,3.08
2023-08-12T16:01:38.245Z,3.58
2023-08-12T16:04:06.239Z,3.05
2023-08-12T16:06:33.556Z,2.88
2023-08-12T16:09:17.419Z,2.67
2023-08-12T16:11:45.278Z,2.90
2023-08-12T16:14:12.529Z,2.75
2023-08-12T16:16:40.361Z,2.80
2023-08-12T16:19:08.159Z,2.92
2023-08-12T16:21:35.407Z,2.83
2023-08-12T16:24:02.616Z,2.80
2023-08-12T16:26:29.805Z,2.60
2023-08-12T16:28:57.013Z,2.80
2023-08-12T16:31:24.718Z,2.88
2023-08-12T16:33:52.076Z,2.75
2023-08-12T16:36:19.364Z,2.92
2023-08-12T16:38:46.597Z,2.63
2023-08-12T16:41:13.928Z,2.65
2023-08-12T16:43:41.140Z,2.85
2023-08-12T16:46:08.405Z,2.72
2023-08-12T16:48:35.618Z,2.95
2023-08-12T16:51:02.828Z,2.63
2023-08-12T16:53:30.074Z,2.78
2023-08-12T16:55:57.273Z,3.00
2023-08-12T16:58:24.481Z,2.83
2023-08-12T17:00:51.715Z,4.22
2023-08-12T17:03:19.041Z,2.80
2023-08-12T17:05:46.345Z,2.92
2023-08-12T17:08:13.530Z,2.80
2023-08-12T17:10:42.143Z,2.78
2023-08-12T17:13:09.359Z,3.03
2023-08-12T17:15:36.845Z,3.20
2023-08-12T17:18:04.670Z,3.20
2023-08-12T17:20:32.055Z,3.00
2023-08-12T17:22:59.530Z,3.20
2023-08-12T17:25:26.820Z,3.42
2023-08-12T17:27:54.070Z,3.10
2023-08-12T17:30:21.412Z,3.22
2023-08-12T17:32:48.820Z,3.10
2023-08-12T17:35:16.122Z,3.13
2023-08-12T17:37:43.330Z,3.30
2023-08-12T17:40:13.849Z,3.17
2023-08-12T17:42:41.156Z,3.20
2023-08-12T17:45:08.549Z,3.30
2023-08-12T17:47:35.809Z,3.30
2023-08-12T17:50:03.021Z,3.43
2023-08-12T17:52:30.204Z,3.30
2023-08-12T17:54:57.415Z,3.40
2023-08-12T17:57:24.677Z,3.50
2023-08-12T17:59:52.900Z,4.10
2023-08-12T18:02:20.094Z,3.50
2023-08-12T18:04:47.322Z,3.20
2023-08-12T18:07:14.735Z,3.13
2023-08-12T18:09:41.955Z,3.42
2023-08-12T18:12:09.144Z,3.57
2023-08-12T18:14:36.334Z,3.40
2023-08-12T18:17:03.598Z,3.67
2023-08-12T18:19:30.940Z,3.23
2023-08-12T18:21:58.134Z,3.50
2023-08-12T18:24:25.308Z,3.50
2023-08-12T18:26:52.624Z,3.87
2023-08-12T18:29:19.813Z,4.20
2023-08-12T18:31:47.014Z,3.50
2023-08-12T18:34:14.343Z,3.40
2023-08-12T18:36:41.530Z,3.28
2023-08-12T18:39:08.806Z,3.27
2023-08-12T18:41:36.088Z,3.67
2023-08-12T18:44:03.377Z,3.63
2023-08-12T18:46:30.608Z,3.60
2023-08-12T18:48:57.786Z,3.63
2023-08-12T18:51:25.113Z,3.83
2023-08-12T18:53:52.323Z,3.70
2023-08-12T18:56:19.594Z,4.10
2023-08-12T18:58:46.798Z,4.10
2023-08-12T19:01:14.024Z,4.07
2023-08-12T19:03:41.325Z,4.20
2023-08-12T19:06:08.673Z,4.17
2023-08-12T19:08:35.866Z,4.10
2023-08-12T19:11:03.123Z,4.10
2023-08-12T19:13:30.556Z,4.10
2023-08-12T19:15:58.139Z,4.23
2023-08-12T19:18:26.811Z,4.30
2023-08-12T19:20:54.268Z,4.03
2023-08-12T19:23:22.101Z,4.53
2023-08-12T19:25:49.278Z,4.43
2023-08-12T19:28:16.984Z,4.47
2023-08-12T19:30:44.299Z,4.80
2023-08-12T19:33:11.569Z,4.30
2023-08-12T19:35:38.853Z,4.50
2023-08-12T19:38:11.982Z,4.37
2023-08-12T19:40:39.317Z,4.70
2023-08-12T19:43:06.563Z,4.63
2023-08-12T19:45:34.146Z,4.37
2023-08-12T19:48:01.455Z,4.93
2023-08-12T19:50:29.991Z,4.87
2023-08-12T19:52:57.571Z,4.90
2023-08-12T19:55:24.973Z,4.70
2023-08-12T19:57:52.230Z,5.20
2023-08-12T20:00:19.489Z,4.70
2023-08-12T20:02:47.556Z,4.93
2023-08-12T20:05:15.410Z,4.70
2023-08-12T20:07:43.370Z,4.80
2023-08-12T20:10:11.349Z,4.87
2023-08-12T20:12:38.638Z,4.87
2023-08-12T20:15:06.396Z,4.90
2023-08-12T20:17:34.438Z,5.03
2023-08-12T20:20:02.556Z,4.73
2023-08-12T20:22:30.294Z,4.97
2023-08-12T20:24:57.531Z,4.70
2023-08-12T20:27:24.815Z,5.30
2023-08-12T20:29:52.096Z,4.80
2023-08-12T20:32:19.357Z,4.80
2023-08-12T20:34:46.601Z,4.90
2023-08-12T20:37:13.897Z,4.90
2023-08-12T20:39:41.395Z,4.53
2023-08-12T20:42:08.714Z,5.30
2023-08-12T20:44:35.933Z,5.10
2023-08-12T20:47:03.124Z,5.23
2023-08-12T20:49:30.331Z,5.10
2023-08-12T20:51:57.687Z,4.90
2023-08-12T20:54:27.408Z,5.50
2023-08-12T20:56:54.965Z,5.37
2023-08-12T20:59:22.183Z,5.37
2023-08-12T21:01:49.624Z,5.40
2023-08-12T21:04:16.873Z,5.87
2023-08-12T21:06:44.880Z,5.97
2023-08-12T21:09:12.202Z,5.90
2023-08-12T21:11:39.469Z,6.30
2023-08-12T21:14:06.918Z,6.20
2023-08-12T21:16:34.296Z,6.40
2023-08-12T21:19:01.646Z,6.63
2023-08-12T21:21:28.925Z,6.53
2023-08-12T21:23:56.136Z,6.80
2023-08-12T21:26:23.323Z,6.70
2023-08-12T21:28:50.613Z,6.03
2023-08-12T21:31:17.838Z,5.30
2023-08-12T21:33:45.408Z,5.30
2023-08-12T21:36:15.051Z,5.33
2023-08-12T21:38:42.292Z,5.17
2023-08-12T21:41:09.487Z,5.50
2023-08-12T21:43:36.716Z,6.13
2023-08-12T21:46:03.972Z,6.00
2023-08-12T21:48:31.216Z,6.47
2023-08-12T21:50:58.497Z,7.10
2023-08-12T21:53:25.697Z,7.47
2023-08-12T21:55:52.998Z,7.60
2023-08-12T21:58:20.238Z,8.67
2023-08-12T22:00:49.548Z,8.50
2023-08-12T22:03:17.772Z,8.13
2023-08-12T22:05:44.984Z,8.70
2023-08-12T22:08:12.207Z,8.80
2023-08-12T22:10:41.804Z,9.23
2023-08-12T22:13:09.008Z,9.00
2023-08-12T22:15:36.522Z,8.50
2023-08-12T22:18:03.843Z,7.70
2023-08-12T22:20:31.099Z,7.20
2023-08-12T22:22:58.309Z,7.43
2023-08-12T22:25:25.517Z,6.30
2023-08-12T22:27:52.932Z,5.73
2023-08-12T22:30:20.164Z,6.77
2023-08-12T22:32:47.447Z,6.20
2023-08-12T22:35:14.743Z,6.20
2023-08-12T22:37:41.971Z,5.93
2023-08-12T22:40:10.627Z,5.90
2023-08-12T22:42:37.865Z,6.50
2023-08-12T22:45:08.408Z,6.30
2023-08-12T22:47:35.775Z,6.20
2023-08-12T22:50:05.041Z,4.50
2023-08-12T22:52:32.280Z,4.87
2023-08-12T22:54:59.538Z,3.97
2023-08-12T22:57:27.110Z,3.27
2023-08-12T22:59:54.298Z,3.40
2023-08-12T23:02:21.549Z,3.53
2023-08-12T23:04:48.848Z,3.07
2023-08-12T23:07:16.028Z,3.10
2023-08-12T23:09:43.272Z,3.00
2023-08-12T23:12:10.518Z,3.00
2023-08-12T23:14:37.695Z,3.50
2023-08-12T23:17:04.937Z,2.90
2023-08-12T23:19:32.219Z,2.93
2023-08-12T23:21:59.532Z,3.17
2023-08-12T23:24:26.835Z,3.07
2023-08-12T23:26:54.081Z,2.90
2023-08-12T23:29:21.323Z,3.20
2023-08-12T23:31:48.555Z,3.13
2023-08-12T23:34:15.755Z,3.30
2023-08-12T23:36:43.395Z,3.20
2023-08-12T23:39:13.447Z,3.40
2023-08-12T23:41:40.663Z,3.43
2023-08-12T23:44:07.861Z,3.50
2023-08-12T23:46:35.107Z,4.00
2023-08-12T23:49:02.470Z,4.20
2023-08-12T23:51:29.706Z,4.40
2023-08-12T23:53:56.900Z,4.00
2023-08-12T23:56:24.133Z,4.17
2023-08-12T23:58:51.380Z,4.30
